createdAt,value
2023-04-03T00:00:57.847Z,2.98
2023-04-03T00:03:24.496Z,3.18
2023-04-03T00:05:51.276Z,3.16
2023-04-03T00:08:17.860Z,3.02
2023-04-03T00:10:44.374Z,2.71
2023-04-03T00:13:11.394Z,3.26
2023-04-03T00:15:39.043Z,3.12
2023-04-03T00:18:06.385Z,3.13
2023-04-03T00:20:33.934Z,3.01
2023-04-03T00:23:01.411Z,3.15
2023-04-03T00:25:27.964Z,3.08
2023-04-03T00:27:55.047Z,2.91
2023-04-03T00:30:22.722Z,2.84
2023-04-03T00:32:50.776Z,3.04
2023-04-03T00:35:18.915Z,3.11
2023-04-03T00:37:46.015Z,2.83
2023-04-03T00:40:14.553Z,2.76
2023-04-03T00:42:42.394Z,2.57
2023-04-03T00:45:11.877Z,2.56
2023-04-03T00:47:40.270Z,2.48
2023-04-03T00:50:07.486Z,2.70
2023-04-03T00:52:34.047Z,2.45
2023-04-03T00:55:04.808Z,2.66
2023-04-03T00:57:32.878Z,2.49
2023-04-03T01:00:06.084Z,2.58
2023-04-03T01:02:32.989Z,2.61
2023-04-03T01:04:59.653Z,2.54
2023-04-03T01:07:31.028Z,2.48
2023-04-03T01:10:01.544Z,1.97
2023-04-03T01:12:31.959Z,2.39
2023-04-03T01:15:07.675Z,2.27
2023-04-03T01:17:40.489Z,2.44
2023-04-03T01:20:18.919Z,2.49
2023-04-03T01:23:07.214Z,2.41
2023-04-03T01:25:34.940Z,1.89
2023-04-03T01:28:01.644Z,2.36
2023-04-03T01:30:35.876Z,2.24
2023-04-03T01:33:03.312Z,2.21
2023-04-03T01:35:30.156Z,2.24
2023-04-03T01:37:56.863Z,2.31
2023-04-03T01:40:23.543Z,2.21
2023-04-03T01:42:50.086Z,1.72
2023-04-03T01:45:16.685Z,2.13
2023-04-03T01:47:43.564Z,2.27
2023-04-03T01:50:10.538Z,2.12
2023-04-03T01:52:37.027Z,1.88
2023-04-03T01:55:03.861Z,2.17
2023-04-03T01:57:30.726Z,2.18
2023-04-03T01:59:57.504Z,2.16
2023-04-03T02:02:24.149Z,2.24
2023-04-03T02:04:50.740Z,2.07
2023-04-03T02:07:17.241Z,1.97
2023-04-03T02:09:43.860Z,2.07
2023-04-03T02:12:10.530Z,2.08
2023-04-03T02:14:37.020Z,1.86
2023-04-03T02:17:03.844Z,1.96
2023-04-03T02:19:30.561Z,1.99
2023-04-03T02:21:57.206Z,1.94
2023-04-03T02:24:23.906Z,1.94
2023-04-03T02:26:50.624Z,1.78
2023-04-03T02:29:17.364Z,1.92
2023-04-03T02:31:43.936Z,1.88
2023-04-03T02:34:10.881Z,1.88
2023-04-03T02:36:37.596Z,1.88
2023-04-03T02:39:04.660Z,2.00
2023-04-03T02:41:31.193Z,1.96
2023-04-03T02:43:57.926Z,1.45
2023-04-03T02:46:24.623Z,1.66
2023-04-03T02:48:51.214Z,1.94
2023-04-03T02:51:17.841Z,1.65
2023-04-03T02:53:44.681Z,1.72
2023-04-03T02:56:11.940Z,1.66
2023-04-03T02:58:38.650Z,1.79
2023-04-03T03:01:05.413Z,1.76
2023-04-03T03:03:32.228Z,1.26
2023-04-03T03:06:14.051Z,1.69
2023-04-03T03:08:41.689Z,1.68
2023-04-03T03:11:08.861Z,1.58
2023-04-03T03:13:35.764Z,0.76
2023-04-03T03:16:02.793Z,1.67
2023-04-03T03:18:29.941Z,1.13
2023-04-03T03:20:59.510Z,1.43
2023-04-03T03:23:28.497Z,1.42
2023-04-03T03:26:00.628Z,1.17
2023-04-03T03:28:27.264Z,1.45
2023-04-03T03:30:54.156Z,0.94
2023-04-03T03:33:20.862Z,0.57
2023-04-03T03:35:47.593Z,1.63
2023-04-03T03:38:14.347Z,1.47
2023-04-03T03:40:41.208Z,1.48
2023-04-03T03:43:08.044Z,1.31
2023-04-03T03:45:34.894Z,0.96
2023-04-03T03:48:02.797Z,1.33
2023-04-03T03:50:29.678Z,1.29
2023-04-03T03:52:56.102Z,1.28
2023-04-03T03:55:22.968Z,1.29
2023-04-03T03:57:49.600Z,1.28
2023-04-03T04:00:16.565Z,1.22
2023-04-03T04:02:44.236Z,1.28
2023-04-03T04:05:11.814Z,1.05
2023-04-03T04:07:38.712Z,1.16
2023-04-03T04:10:05.834Z,1.19
2023-04-03T04:12:32.395Z,1.12
2023-04-03T04:14:58.915Z,1.08
2023-04-03T04:17:25.605Z,1.13
2023-04-03T04:19:52.416Z,1.08
2023-04-03T04:22:19.144Z,1.11
2023-04-03T04:24:45.709Z,0.92
2023-04-03T04:27:12.430Z,0.49
2023-04-03T04:29:39.233Z,0.53
2023-04-03T04:32:06.019Z,1.01
2023-04-03T04:34:32.602Z,0.97
2023-04-03T04:36:59.406Z,0.93
2023-04-03T04:39:25.902Z,0.95
2023-04-03T04:41:52.548Z,0.90
2023-04-03T04:44:19.181Z,0.52
2023-04-03T04:46:45.759Z,0.83
2023-04-03T04:49:12.719Z,0.82
2023-04-03T04:51:51.059Z,0.50
2023-04-03T04:54:19.172Z,1.05
2023-04-03T04:56:45.888Z,0.83
2023-04-03T04:59:12.747Z,0.94
2023-04-03T05:01:39.531Z,0.93
2023-04-03T05:04:06.142Z,0.92
2023-04-03T05:06:32.783Z,0.88
2023-04-03T05:09:01.139Z,0.87
2023-04-03T05:11:27.974Z,0.78
2023-04-03T05:13:54.746Z,0.53
2023-04-03T05:16:21.450Z,0.76
2023-04-03T05:18:48.180Z,0.83
2023-04-03T05:21:14.993Z,0.90
2023-04-03T05:23:41.864Z,0.89
2023-04-03T05:26:08.430Z,0.78
2023-04-03T05:28:36.420Z,0.72
2023-04-03T05:31:03.385Z,0.78
2023-04-03T05:33:30.061Z,0.49
2023-04-03T05:35:56.957Z,0.87
2023-04-03T05:38:23.779Z,1.03
2023-04-03T05:40:50.693Z,0.91
2023-04-03T05:43:17.166Z,0.31
2023-04-03T05:45:46.713Z,1.12
2023-04-03T05:48:13.794Z,1.23
2023-04-03T05:50:40.721Z,0.77
2023-04-03T05:53:07.363Z,1.25
2023-04-03T05:55:33.941Z,1.31
2023-04-03T05:58:00.753Z,1.33
2023-04-03T06:00:27.414Z,1.66
2023-04-03T06:02:54.328Z,2.11
2023-04-03T06:05:20.909Z,2.26
2023-04-03T06:07:47.909Z,2.47
2023-04-03T06:10:14.865Z,2.94
2023-04-03T06:12:44.666Z,2.77
2023-04-03T06:15:13.517Z,3.06
2023-04-03T06:17:43.127Z,3.43
2023-04-03T06:20:11.299Z,3.88
2023-04-03T06:22:40.159Z,3.53
2023-04-03T06:25:07.146Z,3.19
2023-04-03T06:27:33.697Z,2.78
2023-04-03T06:30:00.242Z,3.33
2023-04-03T06:32:26.888Z,3.39
2023-04-03T06:34:53.864Z,3.21
2023-04-03T06:37:24.646Z,2.85
2023-04-03T06:39:51.325Z,3.20
2023-04-03T06:42:18.269Z,3.36
2023-04-03T06:44:45.071Z,4.34
2023-04-03T06:47:16.036Z,4.41
2023-04-03T06:49:43.578Z,4.45
2023-04-03T06:52:11.027Z,4.06
2023-04-03T06:54:37.799Z,4.67
2023-04-03T06:57:05.294Z,5.33
2023-04-03T06:59:32.063Z,4.94
2023-04-03T07:01:58.827Z,5.33
2023-04-03T07:04:25.417Z,4.56
2023-04-03T07:06:52.081Z,4.97
2023-04-03T07:09:21.784Z,4.64
2023-04-03T07:11:48.296Z,5.04
2023-04-03T07:14:18.862Z,5.14
2023-04-03T07:16:46.791Z,5.24
2023-04-03T07:19:13.665Z,5.71
2023-04-03T07:21:40.417Z,5.53
2023-04-03T07:24:08.870Z,5.19
2023-04-03T07:26:38.260Z,6.10
2023-04-03T07:29:05.027Z,6.37
2023-04-03T07:31:31.695Z,6.01
2023-04-03T07:33:59.846Z,7.05
2023-04-03T07:36:26.726Z,5.50
2023-04-03T07:38:54.494Z,5.74
2023-04-03T07:41:22.227Z,6.54
2023-04-03T07:43:49.371Z,6.75
2023-04-03T07:46:16.361Z,7.09
2023-04-03T07:48:42.983Z,8.01
2023-04-03T07:51:12.252Z,7.67
2023-04-03T07:53:39.100Z,7.78
2023-04-03T07:56:05.929Z,7.75
2023-04-03T07:58:32.457Z,7.22
2023-04-03T08:00:59.056Z,6.41
2023-04-03T09:06:34.199Z,8.12
2023-04-03T09:09:06.962Z,9.05
2023-04-03T09:12:07.069Z,8.95
2023-04-03T09:14:40.306Z,10.35
2023-04-03T09:17:25.688Z,8.85
2023-04-03T09:20:20.719Z,8.84
2023-04-03T09:22:52.176Z,9.96
2023-04-03T09:27:02.983Z,10.72
2023-04-03T09:29:29.822Z,10.01
2023-04-03T09:32:10.991Z,11.02
2023-04-03T09:34:38.373Z,9.32
2023-04-03T09:37:05.764Z,9.49
2023-04-03T09:39:34.193Z,10.55
2023-04-03T09:42:03.118Z,8.70
2023-04-03T09:44:34.133Z,9.58
2023-04-03T09:47:01.021Z,9.42
2023-04-03T09:49:27.836Z,9.49
2023-04-03T09:51:54.339Z,8.93
2023-04-03T09:54:34.829Z,9.35
2023-04-03T09:57:07.521Z,10.14
2023-04-03T09:59:34.813Z,10.94
2023-04-03T10:02:05.257Z,9.51
2023-04-03T10:04:42.778Z,9.53
2023-04-03T10:07:36.001Z,10.00
2023-04-03T10:10:20.281Z,10.86
2023-04-03T10:12:47.317Z,13.25
2023-04-03T10:15:15.929Z,12.76
2023-04-03T10:18:24.063Z,9.32
2023-04-03T10:20:53.839Z,10.85
2023-04-03T10:23:33.099Z,9.38
2023-04-03T10:26:08.516Z,9.53
2023-04-03T10:29:03.334Z,10.13
2023-04-03T10:31:38.144Z,9.97
2023-04-03T10:34:30.988Z,10.64
2023-04-03T10:37:20.061Z,11.75
2023-04-03T10:39:49.343Z,10.15
2023-04-03T10:42:29.765Z,9.82
2023-04-03T10:45:24.059Z,11.21
2023-04-03T10:48:09.261Z,10.13
2023-04-03T10:51:08.051Z,11.00
2023-04-03T10:53:50.649Z,9.91
2023-04-03T10:56:21.253Z,9.13
2023-04-03T10:58:57.188Z,11.25
2023-04-03T11:01:31.342Z,9.22
2023-04-03T11:04:00.393Z,9.41
2023-04-03T11:06:38.656Z,9.88
2023-04-03T11:09:23.950Z,9.32
2023-04-03T11:11:54.173Z,10.11
2023-04-03T11:14:36.520Z,10.29
2023-04-03T11:17:07.057Z,10.41
2023-04-03T11:19:48.816Z,9.53
2023-04-03T11:22:36.091Z,9.52
2023-04-03T11:25:11.658Z,9.59
2023-04-03T11:28:03.053Z,9.56
2023-04-03T11:30:33.330Z,10.24
2023-04-03T11:33:23.039Z,10.08
2023-04-03T11:35:54.423Z,10.39
2023-04-03T11:38:35.932Z,9.63
2023-04-03T11:41:06.417Z,10.18
2023-04-03T11:43:35.066Z,10.13
2023-04-03T11:46:09.914Z,10.12
2023-04-03T11:48:36.508Z,9.33
2023-04-03T11:51:29.014Z,8.87
2023-04-03T11:54:15.661Z,9.95
2023-04-03T11:56:42.199Z,11.03
2023-04-03T11:59:11.709Z,11.43
2023-04-03T12:01:59.075Z,11.02
2023-04-03T12:04:28.000Z,10.61
2023-04-03T12:07:12.869Z,10.77
2023-04-03T12:09:42.378Z,8.81
2023-04-03T12:12:30.771Z,10.15
2023-04-03T12:15:19.297Z,10.31
2023-04-03T12:17:46.033Z,9.14
2023-04-03T12:20:51.414Z,10.13
2023-04-03T12:23:29.251Z,9.60
2023-04-03T12:26:04.247Z,10.18
2023-04-03T12:28:36.869Z,9.52
2023-04-03T12:31:05.936Z,9.60
2023-04-03T12:33:48.866Z,10.11
2023-04-03T12:36:41.123Z,9.95
2023-04-03T12:39:35.158Z,10.63
2023-04-03T12:42:14.120Z,10.69
2023-04-03T12:44:57.807Z,9.48
2023-04-03T12:47:29.750Z,9.99
2023-04-03T12:49:58.363Z,10.52
2023-04-03T12:52:48.730Z,10.07
2023-04-03T12:55:20.437Z,10.30
2023-04-03T12:57:47.595Z,10.02
2023-04-03T13:00:40.403Z,10.15
2023-04-03T13:03:20.413Z,10.52
2023-04-03T13:05:47.216Z,9.54
2023-04-03T13:08:15.447Z,9.25
2023-04-03T13:10:55.414Z,9.89
2023-04-03T13:13:22.236Z,10.93
2023-04-03T13:15:50.019Z,9.60
2023-04-03T13:18:32.513Z,10.41
2023-04-03T13:21:17.941Z,9.86
2023-04-03T13:23:50.167Z,10.64
2023-04-03T13:26:21.021Z,11.06
2023-04-03T13:28:49.479Z,10.83
2023-04-03T13:31:25.985Z,11.40
2023-04-03T13:34:14.956Z,11.45
2023-04-03T13:36:46.327Z,10.78
2023-04-03T13:39:15.935Z,10.91
2023-04-03T13:41:44.996Z,12.61
2023-04-03T13:44:17.372Z,11.09
2023-04-03T13:46:44.412Z,12.37
2023-04-03T13:49:32.521Z,11.22
2023-04-03T13:52:07.244Z,10.35
2023-04-03T13:54:38.540Z,11.11
2023-04-03T13:57:14.079Z,11.55
2023-04-03T13:59:40.935Z,10.64
2023-04-03T14:02:34.755Z,12.08
2023-04-03T14:05:03.523Z,11.64
2023-04-03T14:07:31.152Z,10.62
2023-04-03T14:09:59.018Z,10.75
2023-04-03T14:12:37.890Z,11.19
2023-04-03T14:15:12.565Z,12.58
2023-04-03T14:17:39.520Z,12.60
2023-04-03T14:20:07.062Z,10.71
2023-04-03T14:22:34.046Z,11.00
2023-04-03T14:25:01.097Z,10.30
2023-04-03T14:27:40.850Z,11.92
2023-04-03T14:30:14.117Z,11.07
2023-04-03T14:32:40.916Z,10.95
2023-04-03T14:35:07.858Z,10.83
2023-04-03T14:37:34.506Z,10.62
2023-04-03T14:40:02.076Z,10.10
2023-04-03T14:42:35.250Z,10.89
2023-04-03T14:45:04.044Z,11.83
2023-04-03T14:47:32.377Z,10.83
2023-04-03T14:50:06.212Z,10.67
2023-04-03T14:52:35.991Z,10.30
2023-04-03T14:55:05.171Z,10.91
2023-04-03T14:57:32.726Z,11.16
2023-04-03T15:00:00.778Z,11.51
2023-04-03T15:02:39.339Z,9.90
2023-04-03T15:05:08.924Z,11.40
2023-04-03T15:07:39.076Z,11.23
2023-04-03T15:10:20.582Z,10.83
2023-04-03T15:12:48.338Z,10.77
2023-04-03T15:15:18.594Z,10.03
2023-04-03T15:17:46.112Z,9.82
2023-04-03T15:20:19.788Z,10.94
2023-04-03T15:22:46.882Z,11.13
2023-04-03T15:25:13.713Z,10.39
2023-04-03T15:27:41.400Z,10.09
2023-04-03T15:30:12.274Z,10.24
2023-04-03T15:32:38.984Z,9.69
2023-04-03T15:35:06.470Z,10.26
2023-04-03T15:37:33.613Z,10.32
2023-04-03T15:40:00.281Z,10.46
2023-04-03T15:42:27.132Z,9.88
2023-04-03T15:44:54.479Z,10.13
2023-04-03T15:47:21.349Z,11.42
2023-04-03T15:49:48.288Z,10.23
2023-04-03T15:52:15.340Z,10.03
2023-04-03T15:54:42.134Z,10.23
2023-04-03T15:57:09.027Z,9.92
2023-04-03T15:59:35.592Z,10.02
2023-04-03T16:02:05.181Z,9.57
2023-04-03T16:04:32.087Z,9.76
2023-04-03T16:07:01.602Z,9.69
2023-04-03T16:09:29.203Z,9.28
2023-04-03T16:11:55.895Z,9.49
2023-04-03T16:14:22.597Z,9.08
2023-04-03T16:16:49.473Z,9.30
2023-04-03T16:19:15.998Z,8.99
2023-04-03T16:21:42.552Z,9.30
2023-04-03T16:24:09.972Z,9.49
2023-04-03T16:26:36.949Z,8.86
2023-04-03T16:29:04.001Z,8.94
2023-04-03T16:31:34.317Z,9.17
2023-04-03T16:34:02.100Z,9.06
2023-04-03T16:36:29.670Z,9.28
2023-04-03T16:38:56.427Z,8.85
2023-04-03T16:41:23.243Z,8.61
2023-04-03T16:43:49.794Z,8.86
2023-04-03T16:46:16.621Z,8.65
2023-04-03T16:48:43.310Z,8.38
2023-04-03T16:51:10.037Z,8.81
2023-04-03T16:53:36.463Z,8.77
2023-04-03T16:56:03.258Z,8.65
2023-04-03T16:58:30.152Z,8.93
2023-04-03T17:00:56.920Z,8.77
2023-04-03T17:03:23.752Z,8.96
2023-04-03T17:05:50.429Z,8.85
2023-04-03T17:08:18.520Z,8.61
2023-04-03T17:10:45.250Z,9.04
2023-04-03T17:13:12.504Z,8.79
2023-04-03T17:15:39.386Z,8.08
2023-04-03T17:18:06.306Z,8.40
2023-04-03T17:20:33.153Z,8.11
2023-04-03T17:23:00.338Z,7.79
2023-04-03T17:25:27.849Z,8.02
2023-04-03T17:27:54.702Z,7.77
2023-04-03T17:30:21.531Z,7.85
2023-04-03T17:32:48.560Z,7.76
2023-04-03T17:35:15.575Z,7.81
2023-04-03T17:37:42.074Z,7.33
2023-04-03T17:40:09.310Z,7.62
2023-04-03T17:42:35.946Z,7.15
2023-04-03T17:45:02.843Z,7.34
2023-04-03T17:47:29.781Z,7.27
2023-04-03T17:49:56.407Z,7.36
2023-04-03T17:52:23.006Z,7.02
2023-04-03T17:54:50.345Z,7.18
2023-04-03T17:57:16.798Z,7.30
2023-04-03T17:59:43.426Z,7.08
2023-04-03T18:02:09.987Z,6.99
2023-04-03T18:04:36.596Z,7.06
2023-04-03T18:07:04.021Z,6.85
2023-04-03T18:09:33.703Z,6.80
2023-04-03T18:12:05.569Z,6.72
2023-04-03T18:14:33.811Z,7.06
2023-04-03T18:17:00.645Z,6.83
2023-04-03T18:19:29.177Z,6.66
2023-04-03T18:22:00.558Z,6.74
2023-04-03T18:24:28.152Z,6.37
2023-04-03T18:27:00.305Z,6.72
2023-04-03T18:29:30.021Z,6.60
2023-04-03T18:31:57.422Z,6.59
2023-04-03T18:34:24.032Z,6.66
2023-04-03T18:36:50.678Z,6.29
2023-04-03T18:39:17.363Z,6.62
2023-04-03T18:41:44.830Z,6.49
2023-04-03T18:44:15.739Z,6.34
2023-04-03T18:46:42.396Z,6.35
2023-04-03T18:49:10.345Z,6.37
2023-04-03T18:51:37.248Z,6.24
2023-04-03T18:54:05.290Z,6.15
2023-04-03T18:56:32.595Z,6.29
2023-04-03T18:58:59.706Z,6.36
2023-04-03T19:01:26.388Z,6.21
2023-04-03T19:03:53.274Z,6.09
2023-04-03T19:06:20.274Z,5.79
2023-04-03T19:08:48.619Z,5.68
2023-04-03T19:11:15.683Z,6.07
2023-04-03T19:13:47.120Z,5.97
2023-04-03T19:16:29.366Z,5.91
2023-04-03T19:18:55.902Z,6.08
2023-04-03T19:21:22.489Z,6.06
2023-04-03T19:23:49.209Z,6.00
2023-04-03T19:26:16.330Z,5.88
2023-04-03T19:28:42.946Z,5.82
2023-04-03T19:31:18.044Z,5.80
2023-04-03T19:33:45.352Z,5.71
2023-04-03T19:36:12.392Z,5.73
2023-04-03T19:38:39.565Z,5.21
2023-04-03T19:41:08.754Z,5.65
2023-04-03T19:43:35.670Z,5.70
2023-04-03T19:46:02.403Z,5.53
2023-04-03T19:48:29.185Z,5.70
2023-04-03T19:50:55.734Z,5.49
2023-04-03T19:53:22.288Z,5.62
2023-04-03T19:55:49.154Z,5.22
2023-04-03T19:58:15.816Z,5.33
2023-04-03T20:00:42.533Z,5.36
2023-04-03T20:03:09.657Z,5.33
2023-04-03T20:05:36.475Z,5.18
2023-04-03T20:08:03.024Z,5.22
2023-04-03T20:10:29.713Z,5.17
2023-04-03T20:12:56.300Z,5.24
2023-04-03T20:15:23.044Z,5.14
2023-04-03T20:17:49.863Z,5.00
2023-04-03T20:20:16.969Z,5.05
2023-04-03T20:22:43.528Z,5.20
2023-04-03T20:25:12.333Z,4.55
2023-04-03T20:27:40.447Z,5.06
2023-04-03T20:30:11.256Z,4.78
2023-04-03T20:32:37.874Z,4.68
2023-04-03T20:35:05.022Z,4.62
2023-04-03T20:37:32.552Z,4.36
2023-04-03T20:39:59.693Z,4.89
2023-04-03T20:42:26.379Z,4.96
2023-04-03T20:44:53.090Z,4.49
2023-04-03T20:47:19.801Z,4.82
2023-04-03T20:49:46.588Z,4.68
2023-04-03T20:52:13.231Z,4.71
2023-04-03T20:54:39.813Z,4.48
2023-04-03T20:57:06.471Z,4.90
2023-04-03T20:59:33.156Z,4.89
2023-04-03T21:02:00.454Z,4.49
2023-04-03T21:04:39.573Z,4.10
2023-04-03T21:07:43.753Z,4.56
2023-04-03T21:10:47.611Z,4.51
2023-04-03T21:13:51.783Z,4.47
2023-04-03T21:16:18.144Z,4.56
2023-04-03T21:19:02.604Z,4.44
2023-04-03T21:21:29.862Z,4.47
2023-04-03T21:23:56.598Z,4.43
2023-04-03T21:26:26.560Z,4.31
2023-04-03T21:28:54.339Z,4.22
2023-04-03T21:31:23.220Z,4.28
2023-04-03T21:33:51.284Z,4.21
2023-04-03T21:36:17.840Z,4.17
2023-04-03T21:38:44.540Z,3.94
2023-04-03T21:41:11.275Z,4.15
2023-04-03T21:43:37.820Z,4.39
2023-04-03T21:46:04.443Z,4.10
2023-04-03T21:48:32.071Z,4.14
2023-04-03T21:51:03.479Z,3.89
2023-04-03T21:53:31.384Z,3.93
2023-04-03T21:55:58.641Z,3.90
2023-04-03T21:58:30.968Z,3.86
2023-04-03T22:00:58.630Z,3.48
2023-04-03T22:03:25.572Z,3.90
2023-04-03T22:05:52.297Z,3.69
2023-04-03T22:08:19.203Z,3.88
2023-04-03T22:10:45.845Z,3.85
2023-04-03T22:13:12.938Z,3.89
2023-04-03T22:15:39.572Z,3.77
2023-04-03T22:18:06.313Z,3.62
2023-04-03T22:20:32.782Z,3.89
2023-04-03T22:22:59.954Z,3.59
2023-04-03T22:25:26.431Z,3.53
2023-04-03T22:27:54.185Z,3.68
2023-04-03T22:30:20.759Z,3.68
2023-04-03T22:32:47.368Z,3.68
2023-04-03T22:35:13.972Z,3.49
2023-04-03T22:37:40.556Z,3.68
2023-04-03T22:40:07.768Z,3.69
2023-04-03T22:42:34.483Z,3.44
2023-04-03T22:45:01.132Z,3.21
2023-04-03T22:47:27.649Z,3.22
2023-04-03T22:49:54.220Z,3.07
2023-04-03T22:52:21.054Z,3.15
2023-04-03T22:54:47.782Z,3.17
2023-04-03T22:57:14.617Z,2.49
2023-04-03T22:59:41.085Z,2.93
2023-04-03T23:02:07.656Z,3.04
2023-04-03T23:04:34.323Z,3.05
2023-04-03T23:07:01.292Z,2.87
2023-04-03T23:09:27.778Z,2.90
2023-04-03T23:11:54.509Z,2.74
2023-04-03T23:14:21.395Z,2.93
2023-04-03T23:16:47.985Z,3.13
2023-04-03T23:19:14.530Z,3.06
2023-04-03T23:21:41.124Z,2.88
2023-04-03T23:24:07.660Z,2.79
2023-04-03T23:26:34.403Z,2.76
2023-04-03T23:29:01.114Z,2.72
2023-04-03T23:31:27.802Z,2.16
2023-04-03T23:33:54.645Z,2.55
2023-04-03T23:36:21.251Z,2.35
2023-04-03T23:38:47.701Z,2.36
2023-04-03T23:41:14.495Z,2.10
2023-04-03T23:43:40.906Z,2.33
2023-04-03T23:46:07.718Z,2.25
2023-04-03T23:48:34.538Z,2.18
2023-04-03T23:51:02.055Z,2.40
2023-04-03T23:53:28.942Z,2.39
2023-04-03T23:55:55.489Z,2.44
2023-04-03T23:58:22.401Z,2.12
